Floresville, TX (78114)

6:29 PM CDT on August 31, 2016 (GMT -0500)
Wilson County TX, Bentwood subdiv | | Change Station

Elev 472 ft 29.20 °N, 98.20 °W | Updated 2 minutes ago

Partly Cloudy
Partly Cloudy
85.0 °F
Feels Like 83 °F
N
3.0
Wind Variable Wind from East
Gusts 4.0 mph

Today
High -- | Low -- °F
--% Chance of Precip.
Yesterday
High -- | Low -- °F
Precip. -- in
Pressure 29.86 in
Visibility 10.0 miles
Clouds Few 7500 ft
Heat Index 83 °F
Dew Point 48 °F
Humidity 28%
Rainfall 0.00 in
Snow Depth Not available.
7:10 AM 7:55 PM
Waning Crescent, 0% visible
METAR KSSF 312253Z 26003KT 10SM FEW075 28/22 A2989 RMK AO2 LTG DSNT NE RAE04B24E34 TSB03E18 SLP110 P0000 T02830222
Pressure 29.86 in
Visibility 10.0 miles
Clouds Few 7500 ft
Heat Index 83 °F
Dew Point 48 °F
Humidity 28%
Rainfall 0.00 in
Snow Depth Not available.
7:10 AM 7:55 PM
Waning Crescent, 0% visible
METAR KSSF 312253Z 26003KT 10SM FEW075 28/22 A2989 RMK AO2 LTG DSNT NE RAE04B24E34 TSB03E18 SLP110 P0000 T02830222

10-Day Weather Forecast

Almanac

Astronomy

Aug. 31, 2016 Rise Set
Actual Time
Civil Twilight
Nautical Twilight
Astronomical Twilight
Moon
Length of Visible Light
Length of Day
Tomorrow will be .
, % of the Moon is Illuminated

Today's Extremes

State Highs State Lows

Community

WunderPhotos

Upload Photos

1,936,211 photos uploaded!

WunderBlog® & News

Nearby

Air Quality

  Air Quality AQ Index Pollutant
Not available.

Snow Depth

Station Depth Elevation

Earthquake Activity

City Distance Mag. Time & Date
Minimum magnitude displayed is 2.5.

Coastal Water Temperatures

Place Temperature

Stations

Nearby Weather Stations

Station Location Temp. Windchill Dew Point Humidity Wind Precip. Elev Updated Type
                   

Watches & Warnings

There are currently no watches in effect.